Time;durP1;ratioP1;P1;durP2;ratioP2;P2;SDS_P1;SDS_P2;PMS_P1;PMS_P2;Temp;Humidity;BMP_temperature;BMP_pressure;BME280_temperature;BME280_humidity;BME280_pressure;Samples;Min_cycle;Max_cycle;Signal;HPM_P1;HPM_P2
2021/01/14 00:00:54;;;;;;;3.90;1.50;;;11.70;99.90;;;;;;5108826;28;20424;-34
2021/01/14 00:03:25;;;;;;;4.80;1.67;;;11.60;99.90;;;;;;5111919;28;20537;-33
2021/01/14 00:06:13;;;;;;;7.27;1.70;;;11.50;99.90;;;;;;5111272;28;20981;-35
2021/01/14 00:08:43;;;;;;;4.23;1.77;;;11.60;99.90;;;;;;5112604;27;20831;-32
2021/01/14 00:11:13;;;;;;;12.27;3.87;;;11.40;99.90;;;;;;5111923;28;20955;-34
2021/01/14 00:13:45;;;;;;;12.87;3.80;;;11.40;99.90;;;;;;5111802;28;20854;-33
2021/01/14 00:16:15;;;;;;;8.33;3.10;;;11.40;99.90;;;;;;5112003;28;20444;-35
2021/01/14 00:18:45;;;;;;;139.80;22.60;;;11.40;99.90;;;;;;5108493;28;20457;-37
2021/01/14 00:21:15;;;;;;;258.27;47.43;;;11.40;99.90;;;;;;5106615;28;20501;-37
2021/01/14 00:23:45;;;;;;;289.10;44.77;;;11.30;99.90;;;;;;5112879;28;20444;-33
2021/01/14 00:26:15;;;;;;;229.63;39.30;;;11.20;99.90;;;;;;5102802;28;20509;-37
2021/01/14 00:28:47;;;;;;;165.93;28.20;;;11.10;99.90;;;;;;5092372;28;20441;-33
2021/01/14 00:31:20;;;;;;;224.67;37.70;;;10.90;99.90;;;;;;5092005;28;20836;-37
2021/01/14 00:33:50;;;;;;;142.40;25.07;;;10.80;99.90;;;;;;5092291;28;20432;-36
2021/01/14 00:36:30;;;;;;;285.10;43.43;;;10.80;99.90;;;;;;5091652;28;20803;-35
2021/01/14 00:39:00;;;;;;;296.07;45.47;;;10.70;99.90;;;;;;5112004;28;20441;-33
2021/01/14 00:41:38;;;;;;;255.53;41.57;;;10.70;99.90;;;;;;5111372;28;20452;-34
2021/01/14 00:44:09;;;;;;;144.13;23.50;;;10.60;99.90;;;;;;5111564;28;20443;-33
2021/01/14 00:46:39;;;;;;;104.90;17.93;;;10.40;99.90;;;;;;5112241;28;21004;-36
2021/01/14 00:49:09;;;;;;;58.47;11.50;;;10.30;99.90;;;;;;5112433;28;20445;-35
2021/01/14 00:51:40;;;;;;;37.43;8.87;;;10.30;99.90;;;;;;5105110;27;20612;-38
2021/01/14 00:54:10;;;;;;;20.02;5.15;;;10.20;99.90;;;;;;5091724;28;20875;-35
2021/01/14 00:56:40;;;;;;;21.02;4.43;;;10.10;99.90;;;;;;5090879;28;20273;-34
2021/01/14 00:59:12;;;;;;;18.10;3.40;;;10.10;99.90;;;;;;5091657;28;20207;-33
2021/01/14 01:01:43;;;;;;;13.80;4.05;;;10.00;99.90;;;;;;5091596;28;20198;-37
2021/01/14 01:04:13;;;;;;;10.85;3.50;;;9.80;99.90;;;;;;5091369;28;20238;-36
2021/01/14 01:06:43;;;;;;;13.60;3.75;;;9.80;99.90;;;;;;5101125;28;20229;-34
2021/01/14 01:09:13;;;;;;;13.63;3.00;;;9.70;99.90;;;;;;5111354;28;20541;-37
2021/01/14 01:11:44;;;;;;;5.82;3.15;;;9.70;99.90;;;;;;5090772;28;20233;-37
2021/01/14 01:14:15;;;;;;;8.73;2.95;;;9.70;99.90;;;;;;5092656;28;20202;-34
2021/01/14 01:16:45;;;;;;;8.40;2.00;;;9.60;99.90;;;;;;5111725;28;20198;-33
2021/01/14 01:19:15;;;;;;;9.93;5.13;;;9.60;99.90;;;;;;5111882;28;20205;-33
2021/01/14 01:21:45;;;;;;;8.10;4.45;;;9.50;99.90;;;;;;5111668;28;20345;-33
2021/01/14 01:24:15;;;;;;;9.32;5.00;;;9.50;99.90;;;;;;5111565;28;20222;-35
2021/01/14 01:26:51;;;;;;;9.18;4.43;;;9.40;99.90;;;;;;5110772;28;20223;-36
2021/01/14 01:29:22;;;;;;;8.68;5.28;;;9.40;99.90;;;;;;5105754;28;20189;-34
2021/01/14 01:31:52;;;;;;;10.63;4.95;;;9.30;99.90;;;;;;5091096;28;20187;-35
2021/01/14 01:34:22;;;;;;;7.20;5.72;;;9.30;99.90;;;;;;5096652;28;20204;-33
2021/01/14 01:36:53;;;;;;;11.85;5.18;;;9.30;99.90;;;;;;5090700;28;20200;-37
2021/01/14 01:39:23;;;;;;;9.73;5.70;;;9.30;99.90;;;;;;5097750;28;20600;-36
2021/01/14 01:41:57;;;;;;;9.98;5.95;;;9.30;99.90;;;;;;5094763;28;20209;-34
2021/01/14 01:44:28;;;;;;;8.98;6.07;;;9.20;99.90;;;;;;5097031;28;20248;-31
2021/01/14 01:47:05;;;;;;;5.78;4.22;;;9.30;99.90;;;;;;5109971;28;20216;-31
2021/01/14 01:49:38;;;;;;;12.48;6.15;;;9.20;99.90;;;;;;5110956;28;20245;-34
2021/01/14 01:52:09;;;;;;;8.27;4.72;;;9.20;99.90;;;;;;5109406;28;20181;-29
2021/01/14 01:54:39;;;;;;;6.90;4.88;;;9.20;99.90;;;;;;5096855;28;20216;-34
2021/01/14 01:57:10;;;;;;;9.55;4.55;;;9.10;99.90;;;;;;5100794;28;20230;-34
2021/01/14 01:59:42;;;;;;;7.50;5.35;;;9.10;99.90;;;;;;5110212;28;20227;-37
2021/01/14 02:02:22;;;;;;;8.80;4.65;;;9.00;99.90;;;;;;5097839;28;20202;-30
2021/01/14 02:04:53;;;;;;;9.52;5.18;;;9.00;99.90;;;;;;5105915;28;20581;-31
2021/01/14 02:07:47;;;;;;;7.28;4.32;;;9.00;99.90;;;;;;5098874;28;20605;-34
2021/01/14 02:10:29;;;;;;;8.63;5.35;;;8.90;99.90;;;;;;5109713;28;20249;-35
2021/01/14 02:13:07;;;;;;;8.32;4.53;;;8.90;99.90;;;;;;5109250;28;20189;-34
2021/01/14 02:15:40;;;;;;;7.18;5.50;;;8.90;99.90;;;;;;5109569;28;20607;-31
2021/01/14 02:18:10;;;;;;;8.32;4.70;;;8.90;99.90;;;;;;5108565;28;20197;-33
2021/01/14 02:20:41;;;;;;;10.35;5.03;;;8.90;99.90;;;;;;5098557;28;20253;-34
2021/01/14 02:23:19;;;;;;;10.05;5.40;;;8.90;99.90;;;;;;5109984;28;20201;-34
2021/01/14 02:26:12;;;;;;;7.05;5.93;;;9.00;99.90;;;;;;5107243;28;20216;-35
2021/01/14 02:28:44;;;;;;;9.02;5.45;;;9.00;99.90;;;;;;5099549;28;20207;-35
2021/01/14 02:31:15;;;;;;;8.13;5.43;;;8.90;99.90;;;;;;5110409;28;20189;-34
2021/01/14 02:33:48;;;;;;;9.27;5.45;;;8.90;99.90;;;;;;5110478;28;20245;-34
2021/01/14 02:36:18;;;;;;;12.55;5.63;;;8.80;99.90;;;;;;5110323;28;20229;-34
2021/01/14 02:38:48;;;;;;;8.75;6.32;;;8.80;99.90;;;;;;5110361;28;20249;-36
2021/01/14 02:41:19;;;;;;;9.85;6.10;;;8.80;99.90;;;;;;5098714;28;20201;-30
2021/01/14 02:43:50;;;;;;;13.70;8.35;;;8.80;99.90;;;;;;5099613;28;20192;-30
2021/01/14 02:46:22;;;;;;;11.77;10.40;;;8.80;99.90;;;;;;5109809;28;20241;-32
2021/01/14 02:49:00;;;;;;;13.27;10.02;;;8.90;99.90;;;;;;5109965;28;20256;-34
2021/01/14 02:51:40;;;;;;;13.40;9.27;;;9.00;99.90;;;;;;5109867;28;20652;-37
2021/01/14 02:54:11;;;;;;;12.52;8.50;;;9.10;99.90;;;;;;5110163;28;20313;-36
2021/01/14 02:56:45;;;;;;;10.80;8.02;;;9.00;99.90;;;;;;5108979;28;20200;-35
2021/01/14 02:59:15;;;;;;;16.10;8.75;;;8.90;99.90;;;;;;5109453;28;20181;-34
2021/01/14 03:01:46;;;;;;;14.38;7.70;;;8.90;99.90;;;;;;5109538;28;20208;-34
2021/01/14 03:04:16;;;;;;;9.05;7.00;;;8.90;99.90;;;;;;5108295;28;20224;-33
2021/01/14 03:06:46;;;;;;;15.70;9.00;;;8.90;99.90;;;;;;5109697;28;20228;-33
2021/01/14 03:09:19;;;;;;;13.07;7.80;;;8.90;99.90;;;;;;5110045;28;20299;-31
2021/01/14 03:11:52;;;;;;;15.60;8.13;;;8.90;99.90;;;;;;5109305;28;20583;-33
2021/01/14 03:14:22;;;;;;;9.70;6.50;;;8.90;99.90;;;;;;5109711;28;20185;-37
2021/01/14 03:16:52;;;;;;;12.60;7.90;;;8.80;99.90;;;;;;5109369;28;20233;-34
2021/01/14 03:19:23;;;;;;;11.55;8.40;;;8.80;99.90;;;;;;5109209;28;20329;-33
2021/01/14 03:21:58;;;;;;;10.18;7.68;;;8.80;99.90;;;;;;5108039;28;20264;-32
2021/01/14 03:24:29;;;;;;;17.25;7.47;;;8.80;99.90;;;;;;5109666;28;20204;-33
2021/01/14 03:27:00;;;;;;;13.02;7.40;;;8.80;99.90;;;;;;5088794;28;20671;-36
2021/01/14 03:29:30;;;;;;;10.85;7.45;;;8.80;99.90;;;;;;5094792;28;20862;-32
2021/01/14 03:32:02;;;;;;;10.35;8.25;;;8.80;99.90;;;;;;5105484;28;20197;-31
2021/01/14 03:34:32;;;;;;;14.25;8.93;;;8.80;99.90;;;;;;5109594;28;20233;-36
2021/01/14 03:37:02;;;;;;;9.85;8.15;;;8.60;99.90;;;;;;5112708;28;20230;-34
2021/01/14 03:39:32;;;;;;;16.73;9.10;;;8.70;99.90;;;;;;5112084;28;20191;-33
2021/01/14 03:42:03;;;;;;;12.27;8.00;;;8.70;99.90;;;;;;5112785;28;20670;-32
2021/01/14 03:44:33;;;;;;;11.35;8.10;;;8.70;99.90;;;;;;5113859;28;20293;-35
2021/01/14 03:47:03;;;;;;;10.50;8.70;;;8.70;99.90;;;;;;5113444;28;20239;-36
2021/01/14 03:49:33;;;;;;;14.70;8.18;;;8.60;99.90;;;;;;5113555;28;20234;-36
2021/01/14 03:52:03;;;;;;;12.55;7.88;;;8.60;99.90;;;;;;5113176;28;20667;-36
2021/01/14 03:54:33;;;;;;;10.75;6.95;;;8.60;99.90;;;;;;5101666;28;20679;-36
2021/01/14 03:57:05;;;;;;;14.38;6.97;;;8.60;99.90;;;;;;5092296;28;20258;-33
2021/01/14 03:59:35;;;;;;;11.70;7.50;;;8.60;99.90;;;;;;5092742;28;20590;-37
2021/01/14 04:02:07;;;;;;;10.52;7.63;;;8.60;99.90;;;;;;5092514;28;20200;-36
2021/01/14 04:04:38;;;;;;;12.27;7.78;;;8.70;99.90;;;;;;5094170;28;20228;-35
2021/01/14 04:07:09;;;;;;;9.25;7.13;;;8.60;99.90;;;;;;5112971;28;20224;-33
2021/01/14 04:09:40;;;;;;;9.52;6.35;;;8.60;99.90;;;;;;5112988;28;20257;-34
2021/01/14 04:12:12;;;;;;;8.98;6.30;;;8.50;99.90;;;;;;5112122;28;20211;-31
2021/01/14 04:14:50;;;;;;;9.43;6.80;;;8.50;99.90;;;;;;5112795;28;20196;-36
2021/01/14 04:17:20;;;;;;;9.30;5.43;;;8.50;99.90;;;;;;5096108;28;20196;-34
2021/01/14 04:19:50;;;;;;;8.05;5.30;;;8.30;99.90;;;;;;5102821;28;20215;-32
2021/01/14 04:22:20;;;;;;;10.77;5.88;;;8.30;99.90;;;;;;5112642;28;20204;-36
2021/01/14 04:24:50;;;;;;;8.88;5.22;;;8.20;99.90;;;;;;5111990;28;20203;-35
2021/01/14 04:27:22;;;;;;;9.55;5.82;;;8.20;99.90;;;;;;5111968;28;20685;-35
2021/01/14 04:29:52;;;;;;;8.80;5.43;;;8.30;99.90;;;;;;5112561;28;20199;-36
2021/01/14 04:32:23;;;;;;;9.80;5.20;;;8.20;99.90;;;;;;5112258;28;20203;-31
2021/01/14 04:34:53;;;;;;;5.55;4.10;;;8.10;99.90;;;;;;5112106;28;20224;-37
2021/01/14 04:37:23;;;;;;;8.30;5.10;;;8.00;99.90;;;;;;5110485;28;20301;-35
2021/01/14 04:39:53;;;;;;;5.68;5.18;;;8.00;99.90;;;;;;5112188;28;20188;-33
2021/01/14 04:42:30;;;;;;;7.18;4.00;;;8.00;99.90;;;;;;5109452;28;20256;-37
2021/01/14 04:45:00;;;;;;;8.23;4.50;;;8.00;99.90;;;;;;5111299;27;20191;-36
2021/01/14 04:47:31;;;;;;;7.07;4.40;;;7.90;99.90;;;;;;5106991;28;20273;-34
2021/01/14 04:50:02;;;;;;;10.52;5.22;;;7.90;99.90;;;;;;5103138;28;20782;-32
2021/01/14 04:52:40;;;;;;;6.78;4.82;;;7.90;99.90;;;;;;5105466;28;20249;-37
2021/01/14 04:55:14;;;;;;;9.00;4.68;;;7.90;99.90;;;;;;5111642;27;20237;-35
2021/01/14 04:57:53;;;;;;;8.88;4.82;;;7.90;99.90;;;;;;5094173;28;20238;-35
2021/01/14 05:00:26;;;;;;;7.60;4.72;;;7.90;99.90;;;;;;5098593;28;20192;-36
2021/01/14 05:02:58;;;;;;;7.93;5.57;;;7.90;99.90;;;;;;5104217;28;20215;-37
2021/01/14 05:05:31;;;;;;;10.07;5.90;;;7.90;99.90;;;;;;5109168;28;20368;-33
2021/01/14 05:08:08;;;;;;;7.38;5.45;;;8.00;99.90;;;;;;5108850;28;20195;-35
2021/01/14 05:10:38;;;;;;;9.98;5.55;;;8.00;99.90;;;;;;5100311;28;20193;-37
2021/01/14 05:13:10;;;;;;;8.02;6.10;;;8.00;99.90;;;;;;5111403;28;20234;-34
2021/01/14 05:15:40;;;;;;;11.27;8.52;;;8.10;99.90;;;;;;5111513;28;20636;-32
2021/01/14 05:18:11;;;;;;;15.00;11.77;;;8.10;99.90;;;;;;5111254;28;20188;-32
2021/01/14 05:20:41;;;;;;;12.85;10.85;;;8.00;99.90;;;;;;5109820;28;20200;-37
2021/01/14 05:23:12;;;;;;;14.20;11.27;;;7.90;99.90;;;;;;5108539;28;20538;-36
2021/01/14 05:25:51;;;;;;;10.45;9.55;;;7.90;99.90;;;;;;5107908;28;20634;-30
2021/01/14 05:28:25;;;;;;;12.18;9.52;;;7.80;99.90;;;;;;5111272;28;20286;-34
2021/01/14 05:30:55;;;;;;;10.52;9.40;;;7.80;99.90;;;;;;5111282;28;20184;-36
2021/01/14 05:33:25;;;;;;;11.15;9.90;;;7.70;99.90;;;;;;5111178;28;20191;-35
2021/01/14 05:36:04;;;;;;;14.73;8.80;;;7.70;99.90;;;;;;5110735;28;20203;-34
2021/01/14 05:38:35;;;;;;;12.50;8.50;;;7.60;99.90;;;;;;5105286;28;20205;-32
2021/01/14 05:41:21;;;;;;;13.35;8.80;;;7.60;99.90;;;;;;5110927;28;20282;-34
2021/01/14 05:43:56;;;;;;;12.30;8.95;;;7.50;99.90;;;;;;5111278;28;20231;-36
2021/01/14 05:46:27;;;;;;;12.70;9.88;;;7.40;99.90;;;;;;5110582;28;20247;-30
2021/01/14 05:48:57;;;;;;;12.77;9.85;;;7.40;99.90;;;;;;5110860;28;20245;-34
2021/01/14 05:51:28;;;;;;;14.70;8.75;;;7.40;99.90;;;;;;5100827;28;20350;-33
2021/01/14 05:54:00;;;;;;;11.35;8.90;;;7.30;99.90;;;;;;5100316;28;20284;-35
2021/01/14 05:56:39;;;;;;;12.45;10.27;;;7.40;99.90;;;;;;5099073;28;20238;-35
2021/01/14 05:59:11;;;;;;;13.60;10.57;;;7.40;99.90;;;;;;5105647;28;20223;-32
2021/01/14 06:01:55;;;;;;;15.77;12.77;;;7.40;99.90;;;;;;5103427;28;20297;-35
2021/01/14 06:04:27;;;;;;;17.05;15.23;;;7.40;99.90;;;;;;5102639;28;20224;-33
2021/01/14 06:07:02;;;;;;;15.95;13.98;;;7.30;99.90;;;;;;5099227;28;20251;-35
2021/01/14 06:09:41;;;;;;;16.77;14.77;;;7.30;99.90;;;;;;5102767;28;20195;-36
2021/01/14 06:12:13;;;;;;;14.85;12.48;;;7.40;99.90;;;;;;5100432;28;20188;-33
2021/01/14 06:14:44;;;;;;;17.70;13.38;;;7.40;99.90;;;;;;5103030;28;20277;-35
2021/01/14 06:17:15;;;;;;;17.15;12.32;;;7.40;99.90;;;;;;5106364;28;20222;-30
2021/01/14 06:19:45;;;;;;;13.45;10.73;;;7.40;99.90;;;;;;5108464;28;20203;-30
2021/01/14 06:22:17;;;;;;;12.23;10.73;;;7.40;99.90;;;;;;5108039;28;20200;-29
2021/01/14 06:24:58;;;;;;;12.85;10.27;;;7.40;99.90;;;;;;5096839;28;20258;-34
2021/01/14 06:27:28;;;;;;;15.40;11.45;;;7.50;99.90;;;;;;5106922;28;20208;-34
2021/01/14 06:30:06;;;;;;;12.55;11.10;;;7.50;99.90;;;;;;5107322;28;20202;-33
2021/01/14 06:32:37;;;;;;;16.67;11.18;;;7.60;99.90;;;;;;5105047;28;20200;-30
2021/01/14 06:35:08;;;;;;;15.15;10.75;;;7.60;99.90;;;;;;5095787;28;20192;-31
2021/01/14 06:37:39;;;;;;;12.30;9.60;;;7.50;99.90;;;;;;5105837;28;20207;-30
2021/01/14 06:40:10;;;;;;;10.88;9.85;;;7.50;99.90;;;;;;5096211;28;20651;-37
2021/01/14 06:42:47;;;;;;;12.05;10.80;;;7.60;99.90;;;;;;5105617;28;20272;-33
2021/01/14 06:45:22;;;;;;;14.20;10.30;;;7.60;99.90;;;;;;5104174;28;20187;-35
2021/01/14 06:48:04;;;;;;;12.57;9.68;;;7.60;99.90;;;;;;5108436;28;20214;-36
2021/01/14 06:50:41;;;;;;;12.10;10.07;;;7.60;99.90;;;;;;5104647;28;20252;-33
2021/01/14 06:53:14;;;;;;;17.02;10.77;;;7.60;99.90;;;;;;5101575;28;20220;-32
2021/01/14 06:55:44;;;;;;;16.25;9.07;;;7.60;99.90;;;;;;5104191;28;20231;-34
2021/01/14 06:58:15;;;;;;;17.48;9.25;;;7.60;99.90;;;;;;5109895;28;20678;-31
2021/01/14 07:00:47;;;;;;;15.30;9.23;;;7.50;99.90;;;;;;5106137;28;20207;-36
2021/01/14 07:03:24;;;;;;;11.45;9.32;;;7.50;99.90;;;;;;5093603;28;20192;-33
2021/01/14 07:06:08;;;;;;;11.95;10.43;;;7.50;99.90;;;;;;5109664;28;20215;-38
2021/01/14 07:08:42;;;;;;;11.88;8.57;;;7.50;99.90;;;;;;5102903;28;20289;-35
2021/01/14 07:11:14;;;;;;;13.40;9.75;;;7.50;99.90;;;;;;5111455;28;20237;-31
2021/01/14 07:13:46;;;;;;;16.90;10.50;;;7.50;99.90;;;;;;5108934;28;20655;-28
2021/01/14 07:16:18;;;;;;;14.60;10.20;;;7.50;99.90;;;;;;5108635;28;20196;-30
2021/01/14 07:18:49;;;;;;;13.40;9.80;;;7.50;99.90;;;;;;5105160;28;20204;-33
2021/01/14 07:21:36;;;;;;;10.82;9.68;;;7.50;99.90;;;;;;5107298;28;20200;-31
2021/01/14 07:24:19;;;;;;;10.90;9.10;;;7.40;99.90;;;;;;5114024;28;20202;-32
2021/01/14 07:26:53;;;;;;;14.40;10.18;;;7.40;99.90;;;;;;5103847;28;20588;-33
2021/01/14 07:29:24;;;;;;;17.08;9.27;;;7.50;99.90;;;;;;5113841;28;20195;-32
2021/01/14 07:31:56;;;;;;;11.15;9.10;;;7.50;99.90;;;;;;5102543;28;20204;-34
2021/01/14 07:34:40;;;;;;;13.70;9.48;;;7.30;99.90;;;;;;5113290;28;20192;-31
2021/01/14 07:37:11;;;;;;;14.05;9.38;;;7.40;99.90;;;;;;5106281;28;20193;-31
2021/01/14 07:39:53;;;;;;;13.43;9.43;;;7.40;99.90;;;;;;5110213;28;20268;-29
2021/01/14 07:42:25;;;;;;;12.30;9.15;;;7.30;99.90;;;;;;5111947;28;20241;-33
2021/01/14 07:44:57;;;;;;;16.08;8.55;;;7.20;99.90;;;;;;5102888;28;20666;-33
2021/01/14 07:47:30;;;;;;;10.77;8.45;;;7.20;99.90;;;;;;5103871;28;20255;-31
2021/01/14 07:50:01;;;;;;;9.93;7.50;;;7.20;99.90;;;;;;5111261;28;20203;-32
2021/01/14 07:52:33;;;;;;;10.25;7.35;;;7.20;99.90;;;;;;5099879;28;20219;-33
2021/01/14 07:55:05;;;;;;;10.93;7.53;;;7.20;99.90;;;;;;5107108;28;20608;-32
2021/01/14 07:57:45;;;;;;;10.05;7.70;;;7.20;99.90;;;;;;5095784;28;20208;-33
2021/01/14 08:00:25;;;;;;;11.63;7.35;;;7.20;99.90;;;;;;5110076;28;20236;-31
2021/01/14 08:03:13;;;;;;;9.55;7.75;;;7.20;99.90;;;;;;5113192;28;20184;-31
2021/01/14 08:05:44;;;;;;;11.05;7.40;;;7.20;99.90;;;;;;5112495;28;20233;-35
2021/01/14 08:08:34;;;;;;;15.35;8.55;;;7.10;99.90;;;;;;5097085;28;20196;-32
2021/01/14 08:11:17;;;;;;;10.60;7.45;;;7.10;99.90;;;;;;5100985;28;20188;-33
2021/01/14 08:14:13;;;;;;;10.10;6.95;;;7.10;99.90;;;;;;5100699;28;20245;-35
2021/01/14 08:16:45;;;;;;;13.90;8.18;;;7.10;99.90;;;;;;5094720;28;20254;-33
2021/01/14 08:19:33;;;;;;;13.55;8.77;;;6.90;99.90;;;;;;5102602;28;20238;-31
2021/01/14 08:22:07;;;;;;;14.57;9.40;;;6.80;99.90;;;;;;5111794;28;20184;-34
2021/01/14 08:24:48;;;;;;;12.18;8.35;;;6.80;99.90;;;;;;5108759;28;20204;-35
2021/01/14 08:27:31;;;;;;;12.48;9.07;;;6.80;99.90;;;;;;5098842;28;20231;-33
2021/01/14 08:30:05;;;;;;;14.68;10.93;;;6.80;99.90;;;;;;5104160;28;20638;-32
2021/01/14 08:32:43;;;;;;;20.67;15.60;;;6.70;99.90;;;;;;5105145;28;20200;-33
2021/01/14 08:35:26;;;;;;;15.45;11.40;;;6.70;99.90;;;;;;5103549;28;20214;-36
2021/01/14 08:37:58;;;;;;;16.05;12.20;;;6.80;99.90;;;;;;5099078;28;20227;-31
2021/01/14 08:40:33;;;;;;;13.70;9.82;;;6.70;99.90;;;;;;5095656;28;20195;-33
2021/01/14 08:43:05;;;;;;;13.07;8.98;;;6.60;99.90;;;;;;5112279;28;20569;-35
2021/01/14 08:45:37;;;;;;;11.95;8.93;;;6.70;99.90;;;;;;5108970;28;20232;-34
2021/01/14 08:48:11;;;;;;;13.13;8.45;;;6.70;99.90;;;;;;5097571;28;20278;-32
2021/01/14 08:50:47;;;;;;;11.25;7.78;;;6.70;99.90;;;;;;5094609;28;20203;-34
2021/01/14 08:53:31;;;;;;;10.45;8.40;;;6.70;99.90;;;;;;5112065;28;20215;-36
2021/01/14 08:56:03;;;;;;;12.63;7.93;;;6.80;99.90;;;;;;5097416;28;20207;-34
2021/01/14 08:58:38;;;;;;;8.25;6.57;;;6.80;99.90;;;;;;5110710;28;20187;-31
2021/01/14 09:01:10;;;;;;;11.25;7.20;;;6.70;99.90;;;;;;5111961;28;20226;-33
2021/01/14 09:03:42;;;;;;;8.57;7.07;;;6.70;99.90;;;;;;5110791;28;20269;-32
2021/01/14 09:06:14;;;;;;;11.98;7.40;;;6.70;99.90;;;;;;5111820;28;20216;-33
2021/01/14 09:08:44;;;;;;;12.80;7.93;;;6.60;99.90;;;;;;5111919;28;20195;-32
2021/01/14 09:11:14;;;;;;;11.57;7.78;;;6.60;99.90;;;;;;5111084;28;20676;-35
2021/01/14 09:13:44;;;;;;;11.07;6.82;;;6.70;99.90;;;;;;5110474;28;20192;-33
2021/01/14 09:16:14;;;;;;;14.85;6.65;;;6.60;99.90;;;;;;5109158;28;20200;-30
2021/01/14 09:18:44;;;;;;;12.77;8.80;;;6.60;99.90;;;;;;5108596;28;20238;-31
2021/01/14 09:21:15;;;;;;;11.00;7.85;;;6.60;99.90;;;;;;5108920;28;20236;-30
2021/01/14 09:23:45;;;;;;;8.60;7.57;;;6.50;99.90;;;;;;5104477;28;20245;-32
2021/01/14 09:26:18;;;;;;;10.80;6.43;;;6.40;99.90;;;;;;5103206;28;20650;-34
2021/01/14 09:28:52;;;;;;;9.43;6.80;;;6.40;99.90;;;;;;5104462;28;20196;-36
2021/01/14 09:31:22;;;;;;;10.68;6.68;;;6.30;99.90;;;;;;5110941;28;20183;-31
2021/01/14 09:33:52;;;;;;;11.20;6.88;;;6.30;99.90;;;;;;5110634;28;20192;-37
2021/01/14 09:36:24;;;;;;;13.38;7.82;;;6.30;99.90;;;;;;5102399;28;20286;-32
2021/01/14 09:38:55;;;;;;;9.55;7.13;;;6.30;99.90;;;;;;5099814;28;20212;-34
2021/01/14 09:41:29;;;;;;;10.52;6.75;;;6.30;99.90;;;;;;5098394;28;20196;-35
2021/01/14 09:44:01;;;;;;;10.02;7.10;;;6.30;99.90;;;;;;5091061;28;20210;-32
2021/01/14 09:46:32;;;;;;;11.98;7.97;;;6.40;99.90;;;;;;5107145;28;20220;-32
2021/01/14 09:49:04;;;;;;;5.55;4.57;;;6.30;99.90;;;;;;5106111;28;20250;-33
2021/01/14 09:51:35;;;;;;;8.77;5.50;;;6.30;99.90;;;;;;5106548;28;20203;-34
2021/01/14 09:54:06;;;;;;;7.53;5.28;;;6.30;99.90;;;;;;5106600;28;20602;-30
2021/01/14 09:56:42;;;;;;;6.55;4.70;;;6.30;99.90;;;;;;5109704;28;20200;-31
2021/01/14 09:59:20;;;;;;;5.63;4.20;;;6.20;99.90;;;;;;5110770;28;20198;-31
2021/01/14 10:01:52;;;;;;;7.70;4.65;;;6.10;99.90;;;;;;5110536;28;20260;-33
2021/01/14 10:04:26;;;;;;;9.73;5.03;;;6.00;99.90;;;;;;5110488;28;20239;-35
2021/01/14 10:06:59;;;;;;;9.30;5.22;;;6.00;99.90;;;;;;5105780;28;20208;-31
2021/01/14 10:09:30;;;;;;;9.05;4.68;;;6.00;99.90;;;;;;5110509;28;20658;-35
2021/01/14 10:12:01;;;;;;;10.00;5.22;;;5.90;99.90;;;;;;5107267;28;20184;-32
2021/01/14 10:14:31;;;;;;;11.77;5.10;;;6.00;99.90;;;;;;5103959;28;20192;-37
2021/01/14 10:17:09;;;;;;;9.52;5.55;;;6.10;99.90;;;;;;5109211;28;20204;-32
2021/01/14 10:19:40;;;;;;;7.05;5.03;;;6.00;99.90;;;;;;5107723;28;20219;-33
2021/01/14 10:22:11;;;;;;;5.93;4.30;;;5.90;99.90;;;;;;5110609;28;20232;-31
2021/01/14 10:24:41;;;;;;;5.88;4.40;;;5.80;99.90;;;;;;5110370;28;20192;-34
2021/01/14 10:27:15;;;;;;;5.07;4.05;;;5.80;99.90;;;;;;5109527;28;20234;-34
2021/01/14 10:29:46;;;;;;;6.50;4.97;;;5.80;99.90;;;;;;5109655;28;20291;-36
2021/01/14 10:32:18;;;;;;;5.88;4.93;;;5.80;99.90;;;;;;5095473;28;20183;-34
2021/01/14 10:34:49;;;;;;;7.35;4.95;;;5.80;99.90;;;;;;5109881;28;20728;-34
2021/01/14 10:37:22;;;;;;;7.35;4.80;;;5.70;99.90;;;;;;5110449;28;20697;-29
2021/01/14 10:39:52;;;;;;;5.32;4.40;;;5.70;99.90;;;;;;5110065;28;20252;-32
2021/01/14 10:42:34;;;;;;;6.88;4.65;;;5.70;99.90;;;;;;5102947;28;20189;-34
2021/01/14 10:45:07;;;;;;;9.30;5.63;;;5.80;99.90;;;;;;5097738;28;20207;-33
2021/01/14 10:47:39;;;;;;;12.40;5.68;;;5.80;99.90;;;;;;5109698;28;20220;-31
2021/01/14 10:50:23;;;;;;;6.22;4.38;;;5.80;99.90;;;;;;5109896;28;20192;-30
2021/01/14 10:52:59;;;;;;;7.07;4.93;;;5.70;99.90;;;;;;5110046;28;20271;-31
2021/01/14 10:55:29;;;;;;;6.75;4.72;;;5.80;99.90;;;;;;5109384;28;20192;-30
2021/01/14 10:58:05;;;;;;;10.07;4.78;;;5.70;99.90;;;;;;5109958;28;20192;-36
2021/01/14 11:00:38;;;;;;;6.20;4.72;;;5.60;99.90;;;;;;5108989;28;20275;-33
2021/01/14 11:03:09;;;;;;;8.50;4.97;;;5.60;99.90;;;;;;5110412;28;20184;-33
2021/01/14 11:05:43;;;;;;;7.50;4.72;;;5.60;99.90;;;;;;5109427;28;20188;-30
2021/01/14 11:08:16;;;;;;;10.27;5.15;;;5.60;99.90;;;;;;5106540;28;20216;-30
2021/01/14 11:10:47;;;;;;;6.20;4.63;;;5.60;99.90;;;;;;5108259;28;20336;-31
2021/01/14 11:13:18;;;;;;;6.85;5.28;;;5.60;99.90;;;;;;5099136;28;20230;-31
2021/01/14 11:15:48;;;;;;;6.15;5.38;;;5.60;99.90;;;;;;5105758;28;20620;-33
2021/01/14 11:18:18;;;;;;;10.20;5.57;;;5.80;99.90;;;;;;5091163;28;20208;-32
2021/01/14 11:20:48;;;;;;;8.55;5.32;;;5.90;99.90;;;;;;5103712;28;20204;-35
2021/01/14 11:23:19;;;;;;;7.72;4.85;;;5.90;99.90;;;;;;5090756;28;20796;-31
2021/01/14 11:25:49;;;;;;;7.97;5.25;;;5.90;99.90;;;;;;5103782;28;20310;-34
2021/01/14 11:28:19;;;;;;;8.23;5.43;;;5.90;99.90;;;;;;5091888;28;20239;-33
2021/01/14 11:30:49;;;;;;;6.35;5.10;;;5.90;99.90;;;;;;5095867;28;20616;-35
2021/01/14 11:33:19;;;;;;;7.68;4.65;;;5.80;99.90;;;;;;5103338;28;20296;-30
2021/01/14 11:35:49;;;;;;;7.65;5.20;;;5.70;99.90;;;;;;5108962;28;20298;-33
2021/01/14 11:38:20;;;;;;;8.43;4.38;;;5.80;99.90;;;;;;5109326;28;20676;-34
2021/01/14 11:40:51;;;;;;;6.80;5.28;;;5.90;99.90;;;;;;5109091;28;20231;-32
2021/01/14 11:43:21;;;;;;;8.00;5.47;;;6.00;99.90;;;;;;5109565;28;20257;-37
2021/01/14 11:45:51;;;;;;;9.30;4.60;;;6.00;99.90;;;;;;5109041;28;20200;-35
2021/01/14 11:48:21;;;;;;;8.27;5.53;;;6.00;99.90;;;;;;5108343;28;20219;-33
2021/01/14 11:50:51;;;;;;;6.65;4.50;;;6.00;99.90;;;;;;5108050;28;20204;-34
2021/01/14 11:53:23;;;;;;;7.68;4.95;;;6.00;99.90;;;;;;5109128;28;20258;-30
2021/01/14 11:55:53;;;;;;;12.07;4.55;;;6.00;99.90;;;;;;5107528;28;20898;-31
2021/01/14 11:58:23;;;;;;;7.13;5.00;;;6.00;99.90;;;;;;5110983;28;20291;-29
2021/01/14 12:00:53;;;;;;;5.90;4.30;;;5.90;99.90;;;;;;5110675;28;20199;-36
2021/01/14 12:03:23;;;;;;;8.10;5.80;;;5.80;99.90;;;;;;5110877;28;20195;-35
2021/01/14 12:05:53;;;;;;;6.95;4.10;;;5.80;99.90;;;;;;5111641;28;20249;-32
2021/01/14 12:08:24;;;;;;;7.28;5.25;;;5.80;99.90;;;;;;5109244;28;20228;-33
2021/01/14 12:10:54;;;;;;;5.45;4.20;;;5.70;99.90;;;;;;5110265;28;20264;-35
2021/01/14 12:13:24;;;;;;;7.18;4.38;;;5.70;99.90;;;;;;5110109;28;20203;-31
2021/01/14 12:15:54;;;;;;;6.15;5.10;;;5.70;99.90;;;;;;5097753;28;20592;-35
2021/01/14 12:18:24;;;;;;;10.20;5.03;;;5.70;99.90;;;;;;5092458;28;20226;-32
2021/01/14 12:20:54;;;;;;;9.30;4.00;;;5.70;99.90;;;;;;5092377;28;20208;-31
2021/01/14 12:23:26;;;;;;;5.57;5.05;;;5.60;99.90;;;;;;5096311;28;20245;-36
2021/01/14 12:25:56;;;;;;;6.05;4.50;;;5.50;99.90;;;;;;5104946;28;20203;-34
2021/01/14 12:28:26;;;;;;;7.88;5.22;;;5.50;99.90;;;;;;5103028;28;20632;-35
2021/01/14 12:30:56;;;;;;;8.05;5.30;;;5.50;99.90;;;;;;5101673;28;20266;-32
2021/01/14 12:33:26;;;;;;;8.45;4.95;;;5.60;99.90;;;;;;5104413;28;20330;-36
2021/01/14 12:35:56;;;;;;;6.68;4.75;;;5.60;99.90;;;;;;5111634;28;20273;-34
2021/01/14 12:38:27;;;;;;;7.10;4.82;;;5.60;99.90;;;;;;5101663;28;20211;-33
2021/01/14 12:40:57;;;;;;;10.95;6.25;;;5.70;99.90;;;;;;5108795;28;20192;-33
2021/01/14 12:43:27;;;;;;;7.72;5.10;;;5.80;99.90;;;;;;5112045;28;20208;-33
2021/01/14 12:45:57;;;;;;;9.80;5.78;;;5.70;99.90;;;;;;5103238;28;20210;-31
2021/01/14 12:48:27;;;;;;;7.90;5.95;;;5.70;99.90;;;;;;5102582;28;20236;-33
2021/01/14 12:50:57;;;;;;;12.00;5.88;;;5.70;99.90;;;;;;5105125;28;20721;-35
2021/01/14 12:53:28;;;;;;;8.32;5.57;;;5.80;99.90;;;;;;5093084;28;20232;-32
2021/01/14 12:55:58;;;;;;;8.57;5.30;;;5.70;99.90;;;;;;5101410;28;20188;-33
2021/01/14 12:58:31;;;;;;;6.25;5.18;;;5.70;99.90;;;;;;5098881;28;20197;-31
2021/01/14 13:01:02;;;;;;;9.60;5.43;;;5.70;99.90;;;;;;5097749;28;20262;-34
2021/01/14 13:03:32;;;;;;;9.60;5.38;;;5.70;99.90;;;;;;5098637;28;20574;-30
2021/01/14 13:06:02;;;;;;;9.05;5.55;;;5.60;99.90;;;;;;5100931;28;20189;-30
2021/01/14 13:08:33;;;;;;;9.43;5.40;;;5.60;99.90;;;;;;5097149;28;20601;-34
2021/01/14 13:11:03;;;;;;;9.30;5.40;;;5.50;99.90;;;;;;5096624;28;20242;-32
2021/01/14 13:13:33;;;;;;;7.80;5.55;;;5.50;99.90;;;;;;5097068;28;20258;-31
2021/01/14 13:16:03;;;;;;;11.70;5.45;;;5.50;99.90;;;;;;5099868;27;20261;-33